createdAt,value
2022-11-24T00:02:47.764Z,3.17
2022-11-24T00:05:50.735Z,2.95
2022-11-24T00:08:53.929Z,3.10
2022-11-24T00:11:56.775Z,2.70
2022-11-24T00:14:59.589Z,2.53
2022-11-24T00:18:04.601Z,2.60
2022-11-24T00:21:22.923Z,2.55
2022-11-24T00:24:32.170Z,2.47
2022-11-24T00:27:36.714Z,2.92
2022-11-24T00:30:46.075Z,2.25
2022-11-24T00:33:56.053Z,2.97
2022-11-24T00:37:01.088Z,2.35
2022-11-24T00:40:09.342Z,2.13
2022-11-24T00:43:12.373Z,2.58
2022-11-24T00:46:15.057Z,2.25
2022-11-24T00:49:18.989Z,2.42
2022-11-24T00:52:21.582Z,2.55
2022-11-24T00:55:24.147Z,2.47
2022-11-24T00:58:27.155Z,2.45
2022-11-24T01:01:30.851Z,2.25
2022-11-24T01:04:35.106Z,2.53
2022-11-24T01:07:37.899Z,1.73
2022-11-24T01:10:40.546Z,1.85
2022-11-24T01:13:44.239Z,1.70
2022-11-24T01:16:47.139Z,2.15
2022-11-24T01:19:51.202Z,2.00
2022-11-24T01:22:54.188Z,2.53
2022-11-24T01:25:56.723Z,2.17
2022-11-24T01:28:59.502Z,2.50
2022-11-24T01:32:01.999Z,2.42
2022-11-24T01:35:07.381Z,2.00
2022-11-24T01:38:09.900Z,1.75
2022-11-24T01:41:14.077Z,2.15
2022-11-24T01:44:23.891Z,1.98
2022-11-24T01:47:32.829Z,2.22
2022-11-24T01:50:37.333Z,2.00
2022-11-24T01:53:40.819Z,2.25
2022-11-24T01:56:45.805Z,1.95
2022-11-24T01:59:49.658Z,1.70
2022-11-24T02:02:58.459Z,2.10
2022-11-24T02:06:04.015Z,2.00
2022-11-24T02:09:09.105Z,1.85
2022-11-24T02:12:12.142Z,2.47
2022-11-24T02:15:15.071Z,1.95
2022-11-24T02:18:17.603Z,2.35
2022-11-24T02:21:21.506Z,2.22
2022-11-24T02:24:26.272Z,1.40
2022-11-24T02:27:30.130Z,2.25
2022-11-24T02:30:32.827Z,2.03
2022-11-24T02:33:35.637Z,1.83
2022-11-24T02:36:38.266Z,1.83
2022-11-24T02:39:40.835Z,1.45
2022-11-24T02:42:46.985Z,2.10
2022-11-24T02:45:49.566Z,1.85
2022-11-24T02:48:52.255Z,1.70
2022-11-24T02:51:54.836Z,1.75
2022-11-24T02:54:57.764Z,1.73
2022-11-24T02:58:01.648Z,1.98
2022-11-24T03:01:04.349Z,1.80
2022-11-24T03:04:07.147Z,2.08
2022-11-24T03:07:10.492Z,1.98
2022-11-24T03:10:13.149Z,1.48
2022-11-24T03:13:16.991Z,1.63
2022-11-24T03:16:19.523Z,1.98
2022-11-24T03:19:22.203Z,2.15
2022-11-24T03:22:24.799Z,1.65
2022-11-24T03:25:27.445Z,2.40
2022-11-24T03:28:31.337Z,2.58
2022-11-24T03:31:33.990Z,2.47
2022-11-24T03:34:36.706Z,2.42
2022-11-24T03:37:39.250Z,2.25
2022-11-24T03:40:41.811Z,2.65
2022-11-24T03:43:45.722Z,1.95
2022-11-24T03:46:48.334Z,2.13
2022-11-24T03:49:52.923Z,2.40
2022-11-24T03:52:55.503Z,2.97
2022-11-24T03:55:58.375Z,2.30
2022-11-24T03:59:02.414Z,2.53
2022-11-24T04:02:05.017Z,2.40
2022-11-24T04:05:08.246Z,2.00
2022-11-24T04:08:10.829Z,2.58
2022-11-24T04:11:33.449Z,1.98
2022-11-24T04:14:37.362Z,2.10
2022-11-24T04:17:40.374Z,2.28
2022-11-24T04:20:43.095Z,2.35
2022-11-24T04:23:45.704Z,2.45
2022-11-24T04:26:49.382Z,2.03
2022-11-24T04:29:53.340Z,2.40
2022-11-24T04:32:56.884Z,2.17
2022-11-24T04:35:59.454Z,2.30
2022-11-24T04:39:23.634Z,2.40
2022-11-24T04:42:24.582Z,2.00
2022-11-24T04:45:28.553Z,2.20
2022-11-24T04:48:31.065Z,1.85
2022-11-24T04:51:33.695Z,2.40
2022-11-24T04:54:36.365Z,1.88
2022-11-24T04:57:39.254Z,2.50
2022-11-24T05:00:43.333Z,1.98
2022-11-24T05:03:45.980Z,2.47
2022-11-24T05:06:48.559Z,2.08
2022-11-24T05:10:17.214Z,2.15
2022-11-24T05:13:19.786Z,2.50
2022-11-24T05:16:23.792Z,2.08
2022-11-24T05:19:29.844Z,2.35
2022-11-24T05:22:34.975Z,2.47
2022-11-24T05:25:37.670Z,2.67
2022-11-24T05:28:40.245Z,2.42
2022-11-24T05:31:44.132Z,2.53
2022-11-24T05:34:46.757Z,2.50
2022-11-24T05:37:49.477Z,2.33
2022-11-24T05:40:52.066Z,2.05
2022-11-24T05:43:54.625Z,2.08
2022-11-24T05:46:58.621Z,2.92
2022-11-24T05:50:01.202Z,2.33
2022-11-24T05:53:04.208Z,2.28
2022-11-24T05:56:07.161Z,2.72
2022-11-24T05:59:10.290Z,2.60
2022-11-24T06:02:14.395Z,2.53
2022-11-24T06:05:17.607Z,2.22
2022-11-24T06:08:20.139Z,2.38
2022-11-24T06:11:22.726Z,2.35
2022-11-24T06:14:25.205Z,2.28
2022-11-24T06:17:29.409Z,1.92
2022-11-24T06:20:33.015Z,2.17
2022-11-24T06:23:35.754Z,2.50
2022-11-24T06:26:38.231Z,2.10
2022-11-24T06:29:40.870Z,2.80
2022-11-24T06:32:49.462Z,2.13
2022-11-24T06:35:53.493Z,2.80
2022-11-24T06:38:56.030Z,2.88
2022-11-24T06:41:58.611Z,2.10
2022-11-24T06:45:01.241Z,2.70
2022-11-24T06:48:05.299Z,2.38
2022-11-24T06:51:08.749Z,2.53
2022-11-24T06:54:13.853Z,2.47
2022-11-24T06:57:16.355Z,2.60
2022-11-24T07:00:19.619Z,2.25
2022-11-24T07:03:23.680Z,2.17
2022-11-24T07:06:28.236Z,2.97
2022-11-24T07:09:30.853Z,2.50
2022-11-24T07:12:34.789Z,2.75
2022-11-24T07:15:37.378Z,2.58
2022-11-24T07:18:41.239Z,2.45
2022-11-24T07:21:43.914Z,2.25
2022-11-24T07:24:46.592Z,2.22
2022-11-24T07:27:50.390Z,2.53
2022-11-24T07:30:53.029Z,2.58
2022-11-24T07:33:57.959Z,2.50
2022-11-24T07:37:00.549Z,2.55
2022-11-24T07:40:03.041Z,2.13
2022-11-24T07:43:05.937Z,2.22
2022-11-24T07:46:10.834Z,2.92
2022-11-24T07:49:14.750Z,2.47
2022-11-24T07:52:17.291Z,2.70
2022-11-24T07:55:19.876Z,2.47
2022-11-24T07:58:22.554Z,3.33
2022-11-24T08:01:25.441Z,2.47
2022-11-24T08:04:29.563Z,2.45
2022-11-24T08:07:32.340Z,2.30
2022-11-24T08:10:35.019Z,2.40
2022-11-24T08:13:37.711Z,2.60
2022-11-24T08:16:40.434Z,2.65
2022-11-24T08:19:44.586Z,2.97
2022-11-24T08:22:47.249Z,2.92
2022-11-24T08:25:57.111Z,2.88
2022-11-24T08:29:24.310Z,2.67
2022-11-24T08:32:40.312Z,2.50
2022-11-24T08:36:07.497Z,2.45
2022-11-24T08:39:13.588Z,2.80
2022-11-24T08:42:44.853Z,2.55
2022-11-24T08:46:27.961Z,3.08
2022-11-24T08:49:41.759Z,2.25
2022-11-24T08:52:45.946Z,3.03
2022-11-24T08:55:48.974Z,3.10
2022-11-24T08:59:29.600Z,2.58
2022-11-24T09:02:36.198Z,2.85
2022-11-24T09:05:54.448Z,2.25
2022-11-24T09:09:00.123Z,2.58
2022-11-24T09:12:03.246Z,2.47
2022-11-24T09:17:13.451Z,2.60
2022-11-24T09:20:00.369Z,2.72
2022-11-24T09:23:14.584Z,2.22
2022-11-24T09:26:25.747Z,2.42
2022-11-24T09:29:29.138Z,2.65
2022-11-24T09:32:42.015Z,2.35
2022-11-24T09:35:45.205Z,2.45
2022-11-24T09:38:48.790Z,2.15
2022-11-24T09:42:01.624Z,1.85
2022-11-24T09:45:15.201Z,2.35
2022-11-24T09:48:37.725Z,2.05
2022-11-24T09:51:43.375Z,2.25
2022-11-24T09:54:51.109Z,2.22
2022-11-24T09:57:58.775Z,2.17
2022-11-24T10:01:01.608Z,2.42
2022-11-24T10:04:06.627Z,2.33
2022-11-24T10:07:18.202Z,2.00
2022-11-24T10:10:25.346Z,2.00
2022-11-24T10:13:37.523Z,2.25
2022-11-24T10:16:45.387Z,2.15
2022-11-24T10:19:49.657Z,1.70
2022-11-24T10:22:59.656Z,2.25
2022-11-24T10:26:04.665Z,2.15
2022-11-24T10:29:16.689Z,2.00
2022-11-24T10:32:21.119Z,2.25
2022-11-24T10:35:27.195Z,2.28
2022-11-24T10:38:33.109Z,2.25
2022-11-24T10:41:40.658Z,2.13
2022-11-24T10:44:44.791Z,2.53
2022-11-24T10:47:47.672Z,2.17
2022-11-24T10:50:51.305Z,1.90
2022-11-24T10:53:55.539Z,2.40
2022-11-24T10:56:58.183Z,2.42
2022-11-24T11:00:02.730Z,1.95
2022-11-24T11:03:12.699Z,2.03
2022-11-24T11:06:16.606Z,1.83
2022-11-24T11:09:20.676Z,2.28
2022-11-24T11:15:48.979Z,2.15
2022-11-24T11:18:52.185Z,2.35
2022-11-24T11:22:00.978Z,2.13
2022-11-24T11:25:14.630Z,2.15
2022-11-24T11:28:26.525Z,2.20
2022-11-24T11:31:33.956Z,2.35
2022-11-24T11:34:38.647Z,2.13
2022-11-24T11:37:41.635Z,2.15
2022-11-24T11:40:44.278Z,2.15
2022-11-24T11:43:48.224Z,1.85
2022-11-24T11:46:52.618Z,2.50
2022-11-24T11:49:59.191Z,2.63
2022-11-24T11:53:19.536Z,1.77
2022-11-24T11:56:24.308Z,1.90
2022-11-24T11:59:45.750Z,2.00
2022-11-24T12:02:58.706Z,2.17
2022-11-24T12:06:06.460Z,2.25
2022-11-24T12:09:20.693Z,2.10
2022-11-24T12:12:32.183Z,1.88
2022-11-24T12:15:39.083Z,1.92
2022-11-24T12:19:00.182Z,2.22
2022-11-24T12:22:07.680Z,2.10
2022-11-24T12:25:19.898Z,2.15
2022-11-24T12:28:28.798Z,1.67
2022-11-24T12:31:35.298Z,2.35
2022-11-24T12:34:44.670Z,2.15
2022-11-24T12:37:53.552Z,2.22
2022-11-24T12:41:39.795Z,2.80
2022-11-24T12:44:57.581Z,2.45
2022-11-24T12:48:08.420Z,2.05
2022-11-24T12:51:18.110Z,1.88
2022-11-24T12:54:21.984Z,2.63
2022-11-24T12:57:28.584Z,1.98
2022-11-24T13:00:33.822Z,1.83
2022-11-24T13:03:41.844Z,2.22
2022-11-24T13:06:50.875Z,2.00
2022-11-24T13:10:11.935Z,1.73
2022-11-24T13:13:17.809Z,2.05
2022-11-24T13:16:35.685Z,2.17
2022-11-24T13:19:42.153Z,2.67
2022-11-24T13:22:50.591Z,1.88
2022-11-24T13:26:16.586Z,2.00
2022-11-24T13:29:37.233Z,2.25
2022-11-24T13:32:49.422Z,2.15
2022-11-24T13:36:07.779Z,1.70
2022-11-24T13:39:20.087Z,2.38
2022-11-24T13:42:42.897Z,1.60
2022-11-24T13:45:51.381Z,1.95
2022-11-24T13:49:01.121Z,1.95
2022-11-24T13:52:18.897Z,2.17
2022-11-24T13:55:25.919Z,2.08
2022-11-24T13:58:33.098Z,1.85
2022-11-24T14:01:42.393Z,1.90
2022-11-24T14:04:46.050Z,2.30
2022-11-24T14:07:58.469Z,2.22
2022-11-24T14:11:17.180Z,2.17
2022-11-24T14:14:21.805Z,2.15
2022-11-24T14:17:25.485Z,1.80
2022-11-24T14:20:29.468Z,2.42
2022-11-24T14:23:32.549Z,2.22
2022-11-24T14:26:38.308Z,2.63
2022-11-24T14:29:54.251Z,2.58
2022-11-24T14:32:57.301Z,2.60
2022-11-24T14:36:00.300Z,2.72
2022-11-24T14:39:05.307Z,1.80
2022-11-24T14:42:17.957Z,2.88
2022-11-24T14:45:21.393Z,2.78
2022-11-24T14:48:26.459Z,2.47
2022-11-24T14:51:31.466Z,2.53
2022-11-24T14:54:34.701Z,2.65
2022-11-24T14:57:40.288Z,2.40
2022-11-24T15:00:46.950Z,2.72
2022-11-24T15:04:32.496Z,2.97
2022-11-24T15:07:44.379Z,5.55
2022-11-24T15:10:52.272Z,5.78
2022-11-24T15:13:57.140Z,6.28
2022-11-24T15:17:00.603Z,5.00
2022-11-24T15:20:09.020Z,5.82
2022-11-24T15:23:21.116Z,5.80
2022-11-24T15:26:30.799Z,6.22
2022-11-24T15:29:45.365Z,6.40
2022-11-24T15:32:52.133Z,7.75
2022-11-24T15:35:55.059Z,6.75
2022-11-24T15:39:01.092Z,6.38
2022-11-24T15:42:04.976Z,7.20
2022-11-24T15:45:12.067Z,5.28
2022-11-24T15:48:20.567Z,4.93
2022-11-24T15:51:32.240Z,5.95
2022-11-24T15:54:38.191Z,4.65
2022-11-24T15:57:43.386Z,4.32
2022-11-24T16:00:47.558Z,5.53
2022-11-24T16:04:00.184Z,5.43
2022-11-24T16:07:06.522Z,7.32
2022-11-24T16:10:24.926Z,6.95
2022-11-24T16:13:35.623Z,6.25
2022-11-24T16:16:42.090Z,6.78
2022-11-24T16:19:45.744Z,6.22
2022-11-24T16:22:49.716Z,6.57
2022-11-24T16:25:52.936Z,4.68
2022-11-24T16:28:55.847Z,5.90
2022-11-24T16:32:02.007Z,5.93
2022-11-24T16:35:06.031Z,6.03
2022-11-24T16:38:11.698Z,6.85
2022-11-24T16:41:17.071Z,5.47
2022-11-24T16:44:19.983Z,6.60
2022-11-24T16:47:24.436Z,6.28
2022-11-24T16:50:32.545Z,7.35
2022-11-24T16:53:48.594Z,6.45
2022-11-24T16:56:51.373Z,6.30
2022-11-24T16:59:54.346Z,7.15
2022-11-24T17:03:01.494Z,7.78
2022-11-24T17:06:26.104Z,7.45
2022-11-24T17:09:40.797Z,8.90
2022-11-24T17:12:53.267Z,8.15
2022-11-24T17:16:00.678Z,6.93
2022-11-24T17:19:05.511Z,5.55
2022-11-24T17:22:15.668Z,7.95
2022-11-24T17:25:42.080Z,7.50
2022-11-24T17:29:03.856Z,6.78
2022-11-24T17:32:06.705Z,6.63
2022-11-24T17:35:11.871Z,6.13
2022-11-24T17:38:14.552Z,6.78
2022-11-24T17:41:17.216Z,8.80
2022-11-24T17:44:19.814Z,6.05
2022-11-24T17:47:22.668Z,7.32
2022-11-24T17:50:26.865Z,7.28
2022-11-24T17:53:29.924Z,6.72
2022-11-24T17:56:32.717Z,7.53
2022-11-24T17:59:35.433Z,8.65
2022-11-24T18:02:38.428Z,6.32
2022-11-24T18:05:42.537Z,6.30
2022-11-24T18:08:46.436Z,7.47
2022-11-24T18:11:51.856Z,7.00
2022-11-24T18:14:54.959Z,7.35
2022-11-24T18:17:57.576Z,7.43
2022-11-24T18:21:02.541Z,7.63
2022-11-24T18:24:05.307Z,6.72
2022-11-24T18:27:15.360Z,7.55
2022-11-24T18:33:57.966Z,8.25
2022-11-24T18:37:02.976Z,6.93
2022-11-24T18:40:07.208Z,7.85
2022-11-24T18:43:10.234Z,7.03
2022-11-24T18:46:13.953Z,7.68
2022-11-24T18:49:16.766Z,7.43
2022-11-24T18:52:21.106Z,7.55
2022-11-24T18:55:24.195Z,7.93
2022-11-24T18:58:28.936Z,7.82
2022-11-24T19:01:32.517Z,7.00
2022-11-24T19:04:38.080Z,6.55
2022-11-24T19:07:42.374Z,7.43
2022-11-24T19:10:46.319Z,7.88
2022-11-24T19:13:49.369Z,6.55
2022-11-24T19:16:52.562Z,7.57
2022-11-24T19:19:55.639Z,5.88
2022-11-24T19:22:59.980Z,5.55
2022-11-24T19:26:02.762Z,7.47
2022-11-24T19:29:06.014Z,8.80
2022-11-24T19:32:08.950Z,8.35
2022-11-24T19:35:12.729Z,8.52
2022-11-24T19:38:19.788Z,8.18
2022-11-24T19:41:24.831Z,8.23
2022-11-24T19:44:27.384Z,8.40
2022-11-24T19:47:30.134Z,9.00
2022-11-24T19:50:33.179Z,9.52
2022-11-24T19:53:37.925Z,9.52
2022-11-24T19:56:41.306Z,9.73
2022-11-24T19:59:45.640Z,10.07
2022-11-24T20:02:51.738Z,8.77
2022-11-24T20:05:56.408Z,7.95
2022-11-24T20:09:01.087Z,8.23
2022-11-24T20:12:06.748Z,9.27
2022-11-24T20:15:10.417Z,9.23
2022-11-24T20:18:12.982Z,8.55
2022-11-24T20:21:16.337Z,7.88
2022-11-24T20:24:21.146Z,7.35
2022-11-24T20:27:24.045Z,7.32
2022-11-24T20:30:27.398Z,7.60
2022-11-24T20:33:30.815Z,7.47
2022-11-24T20:36:34.682Z,8.13
2022-11-24T20:39:38.893Z,7.28
2022-11-24T20:42:41.739Z,7.20
2022-11-24T20:45:44.512Z,6.22
2022-11-24T20:48:47.377Z,7.05
2022-11-24T20:51:54.286Z,6.43
2022-11-24T20:55:00.328Z,5.45
2022-11-24T20:58:03.043Z,5.53
2022-11-24T21:01:06.610Z,6.00
2022-11-24T21:04:11.046Z,6.35
2022-11-24T21:07:20.558Z,6.35
2022-11-24T21:10:27.762Z,5.57
2022-11-24T21:13:30.532Z,5.47
2022-11-24T21:16:33.953Z,5.10
2022-11-24T21:19:37.089Z,5.75
2022-11-24T21:22:48.558Z,4.90
2022-11-24T21:25:53.557Z,5.80
2022-11-24T21:28:57.309Z,5.18
2022-11-24T21:32:00.019Z,4.55
2022-11-24T21:35:02.998Z,5.30
2022-11-24T21:38:05.710Z,4.82
2022-11-24T21:41:10.251Z,5.03
2022-11-24T21:44:13.293Z,5.85
2022-11-24T21:47:16.227Z,5.72
2022-11-24T21:50:19.034Z,5.50
2022-11-24T21:53:22.686Z,5.30
2022-11-24T21:56:27.186Z,7.30
2022-11-24T21:59:29.894Z,7.57
2022-11-24T22:02:32.733Z,5.50
2022-11-24T22:05:35.403Z,3.33
2022-11-24T22:08:38.140Z,3.05
2022-11-24T22:11:42.390Z,3.47
2022-11-24T22:14:45.782Z,3.58
2022-11-24T22:17:48.674Z,3.28
2022-11-24T22:20:55.079Z,3.22
2022-11-24T22:23:57.880Z,3.63
2022-11-24T22:27:06.126Z,3.30
2022-11-24T22:30:10.496Z,3.15
2022-11-24T22:33:14.078Z,3.30
2022-11-24T22:36:17.405Z,2.75
2022-11-24T22:39:20.014Z,3.13
2022-11-24T22:42:24.063Z,3.03
2022-11-24T22:45:26.697Z,3.55
2022-11-24T22:48:29.399Z,3.78
2022-11-24T22:51:33.041Z,4.25
2022-11-24T22:54:35.874Z,3.28
2022-11-24T22:57:40.061Z,3.40
2022-11-24T23:00:43.657Z,3.50
2022-11-24T23:03:46.837Z,3.53
2022-11-24T23:06:50.973Z,3.33
2022-11-24T23:09:53.786Z,3.47
2022-11-24T23:12:57.914Z,3.72
2022-11-24T23:16:01.049Z,3.05
2022-11-24T23:19:03.502Z,2.92
2022-11-24T23:22:06.103Z,3.50
2022-11-24T23:25:09.161Z,3.90
2022-11-24T23:28:13.117Z,2.60
2022-11-24T23:31:16.473Z,3.00
2022-11-24T23:34:19.033Z,3.03
2022-11-24T23:37:26.459Z,3.55
2022-11-24T23:40:36.904Z,3.28
2022-11-24T23:43:41.589Z,3.40
2022-11-24T23:46:44.174Z,3.75
2022-11-24T23:49:46.640Z,3.67
2022-11-24T23:52:49.229Z,3.15
2022-11-24T23:55:55.181Z,3.63
2022-11-24T23:58:59.032Z,3.38
